Date,TemperatureHighF,TemperatureAvgF,TemperatureLowF,DewpointHighF,DewpointAvgF,DewpointLowF,HumidityHigh,HumidityAvg,HumidityLow,PressureMaxIn,PressureMinIn,WindSpeedMaxMPH,WindSpeedAvgMPH,GustSpeedMaxMPH,PrecipitationSumIn
2013-4-1,71,56,40,47,38,34,82,55,25,30.01,29.90,12,5,15,0.00
2013-4-2,67,55,42,46,43,40,92,66,39,30.11,30.01,15,7,18,0.00
2013-4-3,66,54,42,44,40,35,92,62,31,30.11,29.95,12,5,15,0.00
2013-4-4,63,55,50,51,44,38,100,67,50,29.95,29.70,25,8,30,0.00
2013-4-5,63,53,43,49,43,40,96,72,42,29.90,29.82,24,10,28,0.00
2013-4-6,57,50,45,45,40,35,96,69,43,29.94,29.81,21,11,25,0.00
2013-4-7,55,47,40,44,39,35,96,74,46,29.84,29.56,36,16,45,0.00
2013-4-8,53,43,35,37,35,33,92,73,46,30.18,29.78,12,3,15,0.00
2013-4-9,57,46,33,40,35,31,92,67,41,30.32,30.18,6,4,9,0.00
2013-4-10,62,52,46,46,38,34,70,59,47,30.19,29.95,33,15,41,0.00
2013-4-11,56,46,35,37,34,31,88,65,38,30.20,30.09,12,6,17,0.00
2013-4-12,54,43,31,41,34,28,92,72,44,30.10,29.68,17,6,21,0.00
2013-4-13,51,45,37,39,29,19,79,56,30,29.84,29.67,29,20,35,0.00
2013-4-15,49,45,40,37,32,28,76,62,45,30.05,29.93,22,11,25,0.00
2013-4-16,50,41,32,28,18,13,66,41,22,30.30,30.05,17,13,22,0.00
2013-4-17,56,46,35,25,20,14,58,37,22,30.43,30.32,15,6,17,0.00
2013-4-18,60,50,40,44,35,22,85,57,38,30.36,30.21,14,8,21,0.00
2013-4-19,59,50,47,48,46,42,100,87,61,30.21,29.99,21,13,27,0.00
2013-4-20,60,50,42,43,40,35,92,69,41,30.17,30.07,22,12,27,0.00
2013-4-21,59,49,38,39,36,30,88,63,40,30.22,30.05,27,11,30,0.00
2013-4-22,56,45,36,31,22,9,75,46,15,30.45,30.22,27,13,31,0.00
2013-4-23,60,45,28,23,17,10,68,35,13,30.38,30.19,10,4,12,0.00
2013-4-24,65,51,35,29,24,19,56,36,16,30.30,29.96,10,4,10,0.00
2013-4-25,73,57,38,39,32,26,72,41,22,30.04,29.93,9,4,12,0.00
2013-4-26,79,62,46,42,35,24,73,41,13,30.18,30.04,15,7,20,0.00
2013-4-27,70,60,51,39,34,26,56,38,19,30.16,30.05,24,10,31,0.00
2013-4-28,64,55,45,44,38,32,82,55,30,30.13,29.95,25,13,30,0.00
2013-4-29,58,53,37,42,30,10,73,46,15,30.01,29.85,29,20,37,0.00
2013-4-30,54,42,27,29,24,19,88,53,25,30.33,30.01,15,6,21,0.00